sensor_id;sensor_type;location;lat;lon;timestamp;temperature;humidity
28247;DHT22;66191;53.178;22.058;2023-03-23T00:01:16;10.60;96.40
28247;DHT22;66191;53.178;22.058;2023-03-23T00:03:50;10.60;96.40
28247;DHT22;66191;53.178;22.058;2023-03-23T00:06:22;10.60;96.40
28247;DHT22;66191;53.178;22.058;2023-03-23T00:08:54;10.60;96.50
28247;DHT22;66191;53.178;22.058;2023-03-23T00:11:31;10.60;96.50
28247;DHT22;66191;53.178;22.058;2023-03-23T00:14:02;10.60;96.50
28247;DHT22;66191;53.178;22.058;2023-03-23T00:16:35;10.60;96.60
28247;DHT22;66191;53.178;22.058;2023-03-23T00:19:09;10.60;96.60
28247;DHT22;66191;53.178;22.058;2023-03-23T00:21:42;10.60;96.70
28247;DHT22;66191;53.178;22.058;2023-03-23T00:24:17;10.60;96.80
28247;DHT22;66191;53.178;22.058;2023-03-23T00:26:51;10.50;96.70
28247;DHT22;66191;53.178;22.058;2023-03-23T00:29:22;10.50;96.80
28247;DHT22;66191;53.178;22.058;2023-03-23T00:31:54;10.50;96.80
28247;DHT22;66191;53.178;22.058;2023-03-23T00:34:26;10.50;96.80
28247;DHT22;66191;53.178;22.058;2023-03-23T00:37:02;10.60;96.90
28247;DHT22;66191;53.178;22.058;2023-03-23T00:39:35;10.60;96.90
28247;DHT22;66191;53.178;22.058;2023-03-23T00:42:17;10.60;96.90
28247;DHT22;66191;53.178;22.058;2023-03-23T00:44:49;10.60;97.00
28247;DHT22;66191;53.178;22.058;2023-03-23T00:47:22;10.60;97.00
28247;DHT22;66191;53.178;22.058;2023-03-23T00:49:53;10.60;97.10
28247;DHT22;66191;53.178;22.058;2023-03-23T00:52:26;10.60;97.10
28247;DHT22;66191;53.178;22.058;2023-03-23T00:54:57;10.60;97.10
28247;DHT22;66191;53.178;22.058;2023-03-23T00:57:31;10.60;97.10
28247;DHT22;66191;53.178;22.058;2023-03-23T01:00:03;10.60;97.20
28247;DHT22;66191;53.178;22.058;2023-03-23T01:02:41;10.60;97.20
28247;DHT22;66191;53.178;22.058;2023-03-23T01:05:13;10.60;97.20
28247;DHT22;66191;53.178;22.058;2023-03-23T01:07:45;10.60;97.30
28247;DHT22;66191;53.178;22.058;2023-03-23T01:10:16;10.60;97.20
28247;DHT22;66191;53.178;22.058;2023-03-23T01:12:50;10.60;97.20
28247;DHT22;66191;53.178;22.058;2023-03-23T01:15:22;10.60;97.20
28247;DHT22;66191;53.178;22.058;2023-03-23T01:17:53;10.60;97.30
28247;DHT22;66191;53.178;22.058;2023-03-23T01:20:26;10.60;97.30
28247;DHT22;66191;53.178;22.058;2023-03-23T01:22:59;10.60;97.30
28247;DHT22;66191;53.178;22.058;2023-03-23T01:25:32;10.50;97.30
28247;DHT22;66191;53.178;22.058;2023-03-23T01:28:09;10.50;97.30
28247;DHT22;66191;53.178;22.058;2023-03-23T01:30:41;10.50;97.40
28247;DHT22;66191;53.178;22.058;2023-03-23T01:33:12;10.50;97.40
28247;DHT22;66191;53.178;22.058;2023-03-23T01:35:44;10.40;97.40
28247;DHT22;66191;53.178;22.058;2023-03-23T01:38:16;10.40;97.50
28247;DHT22;66191;53.178;22.058;2023-03-23T01:40:48;10.40;97.60
28247;DHT22;66191;53.178;22.058;2023-03-23T01:43:22;10.40;97.60
28247;DHT22;66191;53.178;22.058;2023-03-23T01:45:53;10.40;97.60
28247;DHT22;66191;53.178;22.058;2023-03-23T01:48:26;10.30;97.70
28247;DHT22;66191;53.178;22.058;2023-03-23T01:50:59;10.30;97.70
28247;DHT22;66191;53.178;22.058;2023-03-23T01:53:36;10.40;97.80
28247;DHT22;66191;53.178;22.058;2023-03-23T01:56:08;10.30;97.80
28247;DHT22;66191;53.178;22.058;2023-03-23T01:58:45;10.30;97.90
28247;DHT22;66191;53.178;22.058;2023-03-23T02:01:16;10.30;97.90
28247;DHT22;66191;53.178;22.058;2023-03-23T02:03:49;10.30;97.90
28247;DHT22;66191;53.178;22.058;2023-03-23T02:06:20;10.30;98.00
28247;DHT22;66191;53.178;22.058;2023-03-23T02:09:14;10.30;98.00
28247;DHT22;66191;53.178;22.058;2023-03-23T02:11:52;10.30;98.30
28247;DHT22;66191;53.178;22.058;2023-03-23T02:14:27;10.30;98.10
28247;DHT22;66191;53.178;22.058;2023-03-23T02:17:00;10.30;98.20
28247;DHT22;66191;53.178;22.058;2023-03-23T02:19:44;10.30;98.10
28247;DHT22;66191;53.178;22.058;2023-03-23T02:22:27;10.30;98.20
28247;DHT22;66191;53.178;22.058;2023-03-23T02:25:12;10.30;98.20
28247;DHT22;66191;53.178;22.058;2023-03-23T02:27:56;10.30;98.10
28247;DHT22;66191;53.178;22.058;2023-03-23T02:30:40;10.40;98.20
28247;DHT22;66191;53.178;22.058;2023-03-23T02:33:25;10.40;98.10
28247;DHT22;66191;53.178;22.058;2023-03-23T02:36:00;10.40;98.10
28247;DHT22;66191;53.178;22.058;2023-03-23T02:38:33;10.30;98.10
28247;DHT22;66191;53.178;22.058;2023-03-23T02:41:06;10.30;98.10
28247;DHT22;66191;53.178;22.058;2023-03-23T02:43:40;10.30;98.20
28247;DHT22;66191;53.178;22.058;2023-03-23T02:46:14;10.30;98.20
28247;DHT22;66191;53.178;22.058;2023-03-23T02:48:48;10.30;98.20
28247;DHT22;66191;53.178;22.058;2023-03-23T02:51:24;10.30;98.20
28247;DHT22;66191;53.178;22.058;2023-03-23T02:54:09;10.30;98.20
28247;DHT22;66191;53.178;22.058;2023-03-23T02:56:42;10.30;98.30
28247;DHT22;66191;53.178;22.058;2023-03-23T02:59:21;10.30;98.30
28247;DHT22;66191;53.178;22.058;2023-03-23T03:02:04;10.30;98.40
28247;DHT22;66191;53.178;22.058;2023-03-23T03:04:41;10.30;98.40
28247;DHT22;66191;53.178;22.058;2023-03-23T03:07:23;10.30;98.40
28247;DHT22;66191;53.178;22.058;2023-03-23T03:09:57;10.30;98.40
28247;DHT22;66191;53.178;22.058;2023-03-23T03:12:32;10.30;98.40
28247;DHT22;66191;53.178;22.058;2023-03-23T03:15:08;10.30;98.50
28247;DHT22;66191;53.178;22.058;2023-03-23T03:17:41;10.30;98.50
28247;DHT22;66191;53.178;22.058;2023-03-23T03:20:18;10.30;98.60
28247;DHT22;66191;53.178;22.058;2023-03-23T03:22:50;10.30;98.60
28247;DHT22;66191;53.178;22.058;2023-03-23T03:25:22;10.30;98.50
28247;DHT22;66191;53.178;22.058;2023-03-23T03:27:57;10.40;98.50
28247;DHT22;66191;53.178;22.058;2023-03-23T03:30:42;10.40;98.60
28247;DHT22;66191;53.178;22.058;2023-03-23T03:33:15;10.40;98.50
28247;DHT22;66191;53.178;22.058;2023-03-23T03:35:51;10.40;98.60
28247;DHT22;66191;53.178;22.058;2023-03-23T03:38:23;10.40;98.50
28247;DHT22;66191;53.178;22.058;2023-03-23T03:40:55;10.40;98.50
28247;DHT22;66191;53.178;22.058;2023-03-23T03:43:27;10.40;98.40
28247;DHT22;66191;53.178;22.058;2023-03-23T03:45:58;10.40;98.40
28247;DHT22;66191;53.178;22.058;2023-03-23T03:48:31;10.40;98.40
28247;DHT22;66191;53.178;22.058;2023-03-23T03:51:04;10.40;98.30
28247;DHT22;66191;53.178;22.058;2023-03-23T03:53:41;10.40;98.30
28247;DHT22;66191;53.178;22.058;2023-03-23T03:56:13;10.40;98.30
28247;DHT22;66191;53.178;22.058;2023-03-23T03:58:53;10.40;98.20
28247;DHT22;66191;53.178;22.058;2023-03-23T04:02:12;10.30;98.20
28247;DHT22;66191;53.178;22.058;2023-03-23T04:04:50;10.40;98.10
28247;DHT22;66191;53.178;22.058;2023-03-23T04:07:26;10.30;98.20
28247;DHT22;66191;53.178;22.058;2023-03-23T04:09:58;10.30;98.20
28247;DHT22;66191;53.178;22.058;2023-03-23T04:12:29;10.30;98.20
28247;DHT22;66191;53.178;22.058;2023-03-23T04:15:19;10.30;98.20
28247;DHT22;66191;53.178;22.058;2023-03-23T04:17:51;10.30;98.20
28247;DHT22;66191;53.178;22.058;2023-03-23T04:20:24;10.30;98.20
28247;DHT22;66191;53.178;22.058;2023-03-23T04:23:01;10.20;98.20
28247;DHT22;66191;53.178;22.058;2023-03-23T04:25:34;10.20;98.30
28247;DHT22;66191;53.178;22.058;2023-03-23T04:28:06;10.20;98.30
28247;DHT22;66191;53.178;22.058;2023-03-23T04:30:48;10.20;98.30
28247;DHT22;66191;53.178;22.058;2023-03-23T04:33:21;10.20;98.30
28247;DHT22;66191;53.178;22.058;2023-03-23T04:36:15;10.30;98.40
28247;DHT22;66191;53.178;22.058;2023-03-23T04:38:59;10.20;98.40
28247;DHT22;66191;53.178;22.058;2023-03-23T04:41:31;10.20;98.40
28247;DHT22;66191;53.178;22.058;2023-03-23T04:44:17;10.20;98.40
28247;DHT22;66191;53.178;22.058;2023-03-23T04:46:59;10.30;98.40
28247;DHT22;66191;53.178;22.058;2023-03-23T04:49:36;10.30;98.40
28247;DHT22;66191;53.178;22.058;2023-03-23T04:52:16;10.30;98.40
28247;DHT22;66191;53.178;22.058;2023-03-23T04:54:57;10.20;98.40
28247;DHT22;66191;53.178;22.058;2023-03-23T04:57:29;10.20;98.50
28247;DHT22;66191;53.178;22.058;2023-03-23T05:00:19;10.20;98.50
28247;DHT22;66191;53.178;22.058;2023-03-23T05:02:54;10.20;98.60
28247;DHT22;66191;53.178;22.058;2023-03-23T05:05:27;10.20;98.50
28247;DHT22;66191;53.178;22.058;2023-03-23T05:08:05;10.30;98.60
28247;DHT22;66191;53.178;22.058;2023-03-23T05:10:42;10.30;98.60
28247;DHT22;66191;53.178;22.058;2023-03-23T05:13:21;10.20;98.60
28247;DHT22;66191;53.178;22.058;2023-03-23T05:15:55;10.30;98.90
28247;DHT22;66191;53.178;22.058;2023-03-23T05:18:26;10.20;98.50
28247;DHT22;66191;53.178;22.058;2023-03-23T05:20:59;10.20;98.60
28247;DHT22;66191;53.178;22.058;2023-03-23T05:23:35;10.30;98.70
28247;DHT22;66191;53.178;22.058;2023-03-23T05:26:16;10.30;98.60
28247;DHT22;66191;53.178;22.058;2023-03-23T05:28:50;10.30;98.50
28247;DHT22;66191;53.178;22.058;2023-03-23T05:31:39;10.30;98.50
28247;DHT22;66191;53.178;22.058;2023-03-23T05:34:12;10.30;98.50
28247;DHT22;66191;53.178;22.058;2023-03-23T05:36:49;10.30;98.50
28247;DHT22;66191;53.178;22.058;2023-03-23T05:39:42;10.30;98.60
28247;DHT22;66191;53.178;22.058;2023-03-23T05:42:15;10.40;98.70
28247;DHT22;66191;53.178;22.058;2023-03-23T05:44:52;10.40;98.60
28247;DHT22;66191;53.178;22.058;2023-03-23T05:47:24;10.40;98.70
28247;DHT22;66191;53.178;22.058;2023-03-23T05:50:01;10.40;98.70
28247;DHT22;66191;53.178;22.058;2023-03-23T05:52:34;10.40;98.70
28247;DHT22;66191;53.178;22.058;2023-03-23T05:55:09;10.40;98.70
28247;DHT22;66191;53.178;22.058;2023-03-23T05:57:45;10.40;98.70
28247;DHT22;66191;53.178;22.058;2023-03-23T06:00:27;10.50;98.70
28247;DHT22;66191;53.178;22.058;2023-03-23T06:03:10;10.50;98.70
28247;DHT22;66191;53.178;22.058;2023-03-23T06:05:48;10.50;98.70
28247;DHT22;66191;53.178;22.058;2023-03-23T06:08:24;10.60;98.70
28247;DHT22;66191;53.178;22.058;2023-03-23T06:10:56;10.60;98.70
28247;DHT22;66191;53.178;22.058;2023-03-23T06:13:31;10.60;98.80
28247;DHT22;66191;53.178;22.058;2023-03-23T06:16:08;10.60;98.80
28247;DHT22;66191;53.178;22.058;2023-03-23T06:18:52;10.60;98.80
28247;DHT22;66191;53.178;22.058;2023-03-23T06:21:35;10.70;98.80
28247;DHT22;66191;53.178;22.058;2023-03-23T06:24:20;10.70;98.80
28247;DHT22;66191;53.178;22.058;2023-03-23T06:26:52;10.80;98.80
28247;DHT22;66191;53.178;22.058;2023-03-23T06:29:34;10.90;98.80
28247;DHT22;66191;53.178;22.058;2023-03-23T06:32:05;11.00;98.80
28247;DHT22;66191;53.178;22.058;2023-03-23T06:34:37;11.00;98.50
28247;DHT22;66191;53.178;22.058;2023-03-23T06:37:30;11.10;98.50
28247;DHT22;66191;53.178;22.058;2023-03-23T06:40:23;11.20;98.30
28247;DHT22;66191;53.178;22.058;2023-03-23T06:42:57;11.30;98.20
28247;DHT22;66191;53.178;22.058;2023-03-23T06:45:50;11.40;98.20
28247;DHT22;66191;53.178;22.058;2023-03-23T06:48:37;11.50;98.10
28247;DHT22;66191;53.178;22.058;2023-03-23T06:51:11;11.60;98.00
28247;DHT22;66191;53.178;22.058;2023-03-23T06:53:47;11.70;97.90
28247;DHT22;66191;53.178;22.058;2023-03-23T06:56:18;11.80;97.60
28247;DHT22;66191;53.178;22.058;2023-03-23T06:58:49;11.80;97.70
28247;DHT22;66191;53.178;22.058;2023-03-23T07:01:26;12.00;97.50
28247;DHT22;66191;53.178;22.058;2023-03-23T07:04:01;12.10;97.50
28247;DHT22;66191;53.178;22.058;2023-03-23T07:06:44;12.10;97.30
28247;DHT22;66191;53.178;22.058;2023-03-23T07:09:15;12.30;97.30
28247;DHT22;66191;53.178;22.058;2023-03-23T07:11:54;12.40;97.00
28247;DHT22;66191;53.178;22.058;2023-03-23T07:14:33;12.50;96.90
28247;DHT22;66191;53.178;22.058;2023-03-23T07:17:07;12.60;96.60
28247;DHT22;66191;53.178;22.058;2023-03-23T07:19:48;12.70;96.60
28247;DHT22;66191;53.178;22.058;2023-03-23T07:22:21;12.80;96.40
28247;DHT22;66191;53.178;22.058;2023-03-23T07:25:04;12.90;96.20
28247;DHT22;66191;53.178;22.058;2023-03-23T07:27:53;13.00;95.90
28247;DHT22;66191;53.178;22.058;2023-03-23T07:30:24;13.20;95.60
28247;DHT22;66191;53.178;22.058;2023-03-23T07:33:03;13.20;95.30
28247;DHT22;66191;53.178;22.058;2023-03-23T07:35:36;13.40;95.00
28247;DHT22;66191;53.178;22.058;2023-03-23T07:38:11;13.50;95.00
28247;DHT22;66191;53.178;22.058;2023-03-23T07:40:47;13.50;94.70
28247;DHT22;66191;53.178;22.058;2023-03-23T07:43:19;13.70;94.60
28247;DHT22;66191;53.178;22.058;2023-03-23T07:46:09;13.90;94.20
28247;DHT22;66191;53.178;22.058;2023-03-23T07:48:52;14.00;93.80
28247;DHT22;66191;53.178;22.058;2023-03-23T07:51:31;14.10;93.20
28247;DHT22;66191;53.178;22.058;2023-03-23T07:54:03;14.30;93.00
28247;DHT22;66191;53.178;22.058;2023-03-23T07:57:04;14.40;92.80
28247;DHT22;66191;53.178;22.058;2023-03-23T07:59:39;14.50;92.50
28247;DHT22;66191;53.178;22.058;2023-03-23T08:02:10;14.60;92.50
28247;DHT22;66191;53.178;22.058;2023-03-23T08:05:20;14.70;92.20
28247;DHT22;66191;53.178;22.058;2023-03-23T08:08:13;14.70;91.80
28247;DHT22;66191;53.178;22.058;2023-03-23T08:11:21;14.70;91.90
28247;DHT22;66191;53.178;22.058;2023-03-23T08:14:14;14.70;91.70
28247;DHT22;66191;53.178;22.058;2023-03-23T08:17:07;14.70;91.60
28247;DHT22;66191;53.178;22.058;2023-03-23T08:20:01;14.70;91.40
28247;DHT22;66191;53.178;22.058;2023-03-23T08:23:01;14.70;91.30
28247;DHT22;66191;53.178;22.058;2023-03-23T08:26:06;14.60;91.40
28247;DHT22;66191;53.178;22.058;2023-03-23T08:28:50;14.60;91.60
28247;DHT22;66191;53.178;22.058;2023-03-23T08:31:51;14.60;91.70
28247;DHT22;66191;53.178;22.058;2023-03-23T08:34:52;14.70;91.50
28247;DHT22;66191;53.178;22.058;2023-03-23T08:37:46;14.80;91.20
28247;DHT22;66191;53.178;22.058;2023-03-23T08:40:48;14.80;91.20
28247;DHT22;66191;53.178;22.058;2023-03-23T08:43:37;14.90;91.10
28247;DHT22;66191;53.178;22.058;2023-03-23T08:46:28;14.90;90.60
28247;DHT22;66191;53.178;22.058;2023-03-23T08:49:22;15.00;90.40
28247;DHT22;66191;53.178;22.058;2023-03-23T08:52:08;15.10;90.60
28247;DHT22;66191;53.178;22.058;2023-03-23T08:54:55;15.20;90.10
28247;DHT22;66191;53.178;22.058;2023-03-23T08:57:51;15.30;89.40
28247;DHT22;66191;53.178;22.058;2023-03-23T09:00:51;15.40;89.40
28247;DHT22;66191;53.178;22.058;2023-03-23T09:03:52;15.60;88.80
28247;DHT22;66191;53.178;22.058;2023-03-23T09:07:02;15.70;88.10
28247;DHT22;66191;53.178;22.058;2023-03-23T09:09:35;15.80;86.40
28247;DHT22;66191;53.178;22.058;2023-03-23T09:12:14;15.90;85.60
28247;DHT22;66191;53.178;22.058;2023-03-23T09:14:48;15.90;85.40
28247;DHT22;66191;53.178;22.058;2023-03-23T09:17:19;15.90;85.20
28247;DHT22;66191;53.178;22.058;2023-03-23T09:19:49;15.90;86.20
28247;DHT22;66191;53.178;22.058;2023-03-23T09:22:22;16.00;85.60
28247;DHT22;66191;53.178;22.058;2023-03-23T09:24:52;16.10;85.60
28247;DHT22;66191;53.178;22.058;2023-03-23T09:27:23;16.20;85.60
28247;DHT22;66191;53.178;22.058;2023-03-23T09:29:57;16.30;85.30
28247;DHT22;66191;53.178;22.058;2023-03-23T09:32:28;16.40;84.10
28247;DHT22;66191;53.178;22.058;2023-03-23T09:35:00;16.50;84.10
28247;DHT22;66191;53.178;22.058;2023-03-23T09:37:31;16.60;82.90
28247;DHT22;66191;53.178;22.058;2023-03-23T09:40:03;16.60;82.90
28247;DHT22;66191;53.178;22.058;2023-03-23T09:42:40;16.70;82.30
28247;DHT22;66191;53.178;22.058;2023-03-23T09:45:19;16.80;81.70
28247;DHT22;66191;53.178;22.058;2023-03-23T09:47:59;16.80;81.00
28247;DHT22;66191;53.178;22.058;2023-03-23T09:50:33;16.80;81.40
28247;DHT22;66191;53.178;22.058;2023-03-23T09:53:08;16.90;80.80
28247;DHT22;66191;53.178;22.058;2023-03-23T09:55:40;16.90;80.30
28247;DHT22;66191;53.178;22.058;2023-03-23T09:58:15;16.90;80.50
28247;DHT22;66191;53.178;22.058;2023-03-23T10:00:51;16.90;78.60
28247;DHT22;66191;53.178;22.058;2023-03-23T10:03:25;16.90;77.80
28247;DHT22;66191;53.178;22.058;2023-03-23T10:05:56;16.80;77.00
28247;DHT22;66191;53.178;22.058;2023-03-23T10:08:29;16.90;76.30
28247;DHT22;66191;53.178;22.058;2023-03-23T10:11:08;17.00;77.10
28247;DHT22;66191;53.178;22.058;2023-03-23T10:13:44;17.00;77.10
28247;DHT22;66191;53.178;22.058;2023-03-23T10:16:21;17.00;75.40
28247;DHT22;66191;53.178;22.058;2023-03-23T10:18:54;17.00;73.90
28247;DHT22;66191;53.178;22.058;2023-03-23T10:21:26;17.00;73.80
28247;DHT22;66191;53.178;22.058;2023-03-23T10:23:59;17.00;73.80
28247;DHT22;66191;53.178;22.058;2023-03-23T10:26:36;17.00;74.00
28247;DHT22;66191;53.178;22.058;2023-03-23T10:29:12;17.00;73.40
28247;DHT22;66191;53.178;22.058;2023-03-23T10:31:47;17.00;73.90
28247;DHT22;66191;53.178;22.058;2023-03-23T10:34:23;17.00;73.20
28247;DHT22;66191;53.178;22.058;2023-03-23T10:36:56;17.10;74.00
28247;DHT22;66191;53.178;22.058;2023-03-23T10:39:31;17.10;73.70
28247;DHT22;66191;53.178;22.058;2023-03-23T10:42:02;17.10;72.70
28247;DHT22;66191;53.178;22.058;2023-03-23T10:44:37;17.10;73.40
28247;DHT22;66191;53.178;22.058;2023-03-23T10:47:11;17.10;72.80
28247;DHT22;66191;53.178;22.058;2023-03-23T10:49:45;17.10;72.90
28247;DHT22;66191;53.178;22.058;2023-03-23T10:55:08;17.30;73.50
28247;DHT22;66191;53.178;22.058;2023-03-23T10:57:41;17.30;72.90
28247;DHT22;66191;53.178;22.058;2023-03-23T11:00:17;17.40;72.70
28247;DHT22;66191;53.178;22.058;2023-03-23T11:02:59;17.40;73.00
28247;DHT22;66191;53.178;22.058;2023-03-23T11:05:35;17.40;72.50
28247;DHT22;66191;53.178;22.058;2023-03-23T11:08:11;17.50;72.00
28247;DHT22;66191;53.178;22.058;2023-03-23T11:10:47;17.50;71.90
28247;DHT22;66191;53.178;22.058;2023-03-23T11:13:20;17.50;71.80
28247;DHT22;66191;53.178;22.058;2023-03-23T11:15:51;17.50;71.60
28247;DHT22;66191;53.178;22.058;2023-03-23T11:18:26;17.50;71.40
28247;DHT22;66191;53.178;22.058;2023-03-23T11:20:57;17.50;71.30
28247;DHT22;66191;53.178;22.058;2023-03-23T11:23:29;17.50;71.80
28247;DHT22;66191;53.178;22.058;2023-03-23T11:26:03;17.50;70.80
28247;DHT22;66191;53.178;22.058;2023-03-23T11:28:36;17.50;70.30
28247;DHT22;66191;53.178;22.058;2023-03-23T11:31:08;17.50;69.90
28247;DHT22;66191;53.178;22.058;2023-03-23T11:33:47;17.50;69.20
28247;DHT22;66191;53.178;22.058;2023-03-23T11:36:33;17.50;70.30
28247;DHT22;66191;53.178;22.058;2023-03-23T11:39:17;17.50;69.60
28247;DHT22;66191;53.178;22.058;2023-03-23T11:41:49;17.50;68.40
28247;DHT22;66191;53.178;22.058;2023-03-23T11:44:39;17.50;67.70
28247;DHT22;66191;53.178;22.058;2023-03-23T11:47:15;17.50;67.80
28247;DHT22;66191;53.178;22.058;2023-03-23T11:49:50;17.60;66.90
28247;DHT22;66191;53.178;22.058;2023-03-23T11:52:25;17.60;67.00
28247;DHT22;66191;53.178;22.058;2023-03-23T11:54:58;17.60;66.50
28247;DHT22;66191;53.178;22.058;2023-03-23T11:57:32;17.70;66.10
28247;DHT22;66191;53.178;22.058;2023-03-23T12:00:10;17.80;66.30
28247;DHT22;66191;53.178;22.058;2023-03-23T12:05:33;18.00;66.00
28247;DHT22;66191;53.178;22.058;2023-03-23T12:08:12;18.10;65.70
28247;DHT22;66191;53.178;22.058;2023-03-23T12:10:46;18.10;65.80
28247;DHT22;66191;53.178;22.058;2023-03-23T12:13:34;18.20;66.40
28247;DHT22;66191;53.178;22.058;2023-03-23T12:16:11;18.30;66.40
28247;DHT22;66191;53.178;22.058;2023-03-23T12:18:47;18.40;66.80
28247;DHT22;66191;53.178;22.058;2023-03-23T12:21:25;18.40;66.00
28247;DHT22;66191;53.178;22.058;2023-03-23T12:24:04;18.50;65.50
28247;DHT22;66191;53.178;22.058;2023-03-23T12:26:40;18.60;65.50
28247;DHT22;66191;53.178;22.058;2023-03-23T12:29:15;18.60;65.30
28247;DHT22;66191;53.178;22.058;2023-03-23T12:34:40;18.70;64.40
28247;DHT22;66191;53.178;22.058;2023-03-23T12:37:19;18.70;64.00
28247;DHT22;66191;53.178;22.058;2023-03-23T12:39:56;18.80;64.50
28247;DHT22;66191;53.178;22.058;2023-03-23T12:42:30;18.80;64.10
28247;DHT22;66191;53.178;22.058;2023-03-23T12:45:07;18.90;64.30
28247;DHT22;66191;53.178;22.058;2023-03-23T12:47:47;18.90;63.20
28247;DHT22;66191;53.178;22.058;2023-03-23T12:50:21;18.80;62.90
28247;DHT22;66191;53.178;22.058;2023-03-23T12:52:57;18.80;63.10
28247;DHT22;66191;53.178;22.058;2023-03-23T12:55:30;18.80;62.80
28247;DHT22;66191;53.178;22.058;2023-03-23T12:58:04;18.70;63.00
28247;DHT22;66191;53.178;22.058;2023-03-23T13:00:46;18.60;63.00
28247;DHT22;66191;53.178;22.058;2023-03-23T13:03:20;18.60;63.00
28247;DHT22;66191;53.178;22.058;2023-03-23T13:05:54;18.50;63.00
28247;DHT22;66191;53.178;22.058;2023-03-23T13:08:31;18.50;63.30
28247;DHT22;66191;53.178;22.058;2023-03-23T13:11:04;18.40;63.20
28247;DHT22;66191;53.178;22.058;2023-03-23T13:13:45;18.40;63.60
28247;DHT22;66191;53.178;22.058;2023-03-23T13:16:25;18.30;63.70
28247;DHT22;66191;53.178;22.058;2023-03-23T13:19:00;18.30;64.00
28247;DHT22;66191;53.178;22.058;2023-03-23T13:21:34;18.20;63.50
28247;DHT22;66191;53.178;22.058;2023-03-23T13:24:17;18.20;63.50
28247;DHT22;66191;53.178;22.058;2023-03-23T13:26:49;18.10;63.80
28247;DHT22;66191;53.178;22.058;2023-03-23T13:29:23;18.00;64.30
28247;DHT22;66191;53.178;22.058;2023-03-23T13:32:04;18.00;64.60
28247;DHT22;66191;53.178;22.058;2023-03-23T13:34:35;18.00;65.00
28247;DHT22;66191;53.178;22.058;2023-03-23T13:37:10;17.90;65.50
28247;DHT22;66191;53.178;22.058;2023-03-23T13:39:50;17.90;65.70
28247;DHT22;66191;53.178;22.058;2023-03-23T13:42:24;17.90;66.10
28247;DHT22;66191;53.178;22.058;2023-03-23T13:45:07;17.80;66.20
28247;DHT22;66191;53.178;22.058;2023-03-23T13:47:40;17.70;65.00
28247;DHT22;66191;53.178;22.058;2023-03-23T13:50:23;17.70;66.00
28247;DHT22;66191;53.178;22.058;2023-03-23T13:52:58;17.60;65.70
28247;DHT22;66191;53.178;22.058;2023-03-23T13:55:39;17.60;65.40
28247;DHT22;66191;53.178;22.058;2023-03-23T13:58:20;17.50;65.80
28247;DHT22;66191;53.178;22.058;2023-03-23T14:01:03;17.50;66.10
28247;DHT22;66191;53.178;22.058;2023-03-23T14:03:40;17.40;66.00
28247;DHT22;66191;53.178;22.058;2023-03-23T14:06:13;17.40;66.30
28247;DHT22;66191;53.178;22.058;2023-03-23T14:09:04;17.30;66.60
28247;DHT22;66191;53.178;22.058;2023-03-23T14:11:47;17.30;66.90
28247;DHT22;66191;53.178;22.058;2023-03-23T14:14:24;17.20;67.30
28247;DHT22;66191;53.178;22.058;2023-03-23T14:17:05;17.20;67.60
28247;DHT22;66191;53.178;22.058;2023-03-23T14:19:37;17.10;67.90
28247;DHT22;66191;53.178;22.058;2023-03-23T14:22:17;17.10;68.20
28247;DHT22;66191;53.178;22.058;2023-03-23T14:24:49;17.10;68.40
28247;DHT22;66191;53.178;22.058;2023-03-23T14:27:23;17.00;68.50
28247;DHT22;66191;53.178;22.058;2023-03-23T14:29:57;17.00;69.00
28247;DHT22;66191;53.178;22.058;2023-03-23T14:32:30;16.90;69.20
28247;DHT22;66191;53.178;22.058;2023-03-23T14:35:04;16.90;69.60
28247;DHT22;66191;53.178;22.058;2023-03-23T14:37:38;16.90;70.10
28247;DHT22;66191;53.178;22.058;2023-03-23T14:40:11;16.80;70.90
28247;DHT22;66191;53.178;22.058;2023-03-23T14:42:46;16.80;72.20
28247;DHT22;66191;53.178;22.058;2023-03-23T14:45:19;16.70;73.70
28247;DHT22;66191;53.178;22.058;2023-03-23T14:47:52;16.60;74.60
28247;DHT22;66191;53.178;22.058;2023-03-23T14:50:27;16.60;75.60
28247;DHT22;66191;53.178;22.058;2023-03-23T14:53:01;16.50;76.90
28247;DHT22;66191;53.178;22.058;2023-03-23T14:55:33;16.40;77.80
28247;DHT22;66191;53.178;22.058;2023-03-23T14:58:12;16.40;79.90
28247;DHT22;66191;53.178;22.058;2023-03-23T15:00:45;16.30;80.20
28247;DHT22;66191;53.178;22.058;2023-03-23T15:03:17;16.20;81.00
28247;DHT22;66191;53.178;22.058;2023-03-23T15:05:51;16.20;81.40
28247;DHT22;66191;53.178;22.058;2023-03-23T15:08:23;16.10;81.50
28247;DHT22;66191;53.178;22.058;2023-03-23T15:11:03;16.00;81.50
28247;DHT22;66191;53.178;22.058;2023-03-23T15:13:37;15.90;82.10
28247;DHT22;66191;53.178;22.058;2023-03-23T15:16:12;15.90;82.40
28247;DHT22;66191;53.178;22.058;2023-03-23T15:18:46;15.80;83.60
28247;DHT22;66191;53.178;22.058;2023-03-23T15:21:21;15.80;84.70
28247;DHT22;66191;53.178;22.058;2023-03-23T15:23:53;15.70;85.10
28247;DHT22;66191;53.178;22.058;2023-03-23T15:26:26;15.70;85.50
28247;DHT22;66191;53.178;22.058;2023-03-23T15:29:05;15.60;86.00
28247;DHT22;66191;53.178;22.058;2023-03-23T15:31:40;15.50;87.00
28247;DHT22;66191;53.178;22.058;2023-03-23T15:34:14;15.40;87.80
28247;DHT22;66191;53.178;22.058;2023-03-23T15:36:46;15.40;88.50
28247;DHT22;66191;53.178;22.058;2023-03-23T15:39:20;15.30;88.60
28247;DHT22;66191;53.178;22.058;2023-03-23T15:41:52;15.30;88.50
28247;DHT22;66191;53.178;22.058;2023-03-23T15:44:28;15.30;88.30
28247;DHT22;66191;53.178;22.058;2023-03-23T15:47:04;15.20;88.60
28247;DHT22;66191;53.178;22.058;2023-03-23T15:49:41;15.20;88.80
28247;DHT22;66191;53.178;22.058;2023-03-23T15:52:12;15.20;88.40
28247;DHT22;66191;53.178;22.058;2023-03-23T15:54:47;15.10;88.60
28247;DHT22;66191;53.178;22.058;2023-03-23T15:57:18;15.10;88.40
28247;DHT22;66191;53.178;22.058;2023-03-23T15:59:51;15.00;89.30
28247;DHT22;66191;53.178;22.058;2023-03-23T16:02:22;14.90;89.60
28247;DHT22;66191;53.178;22.058;2023-03-23T16:04:54;15.00;90.00
28247;DHT22;66191;53.178;22.058;2023-03-23T16:07:25;14.90;90.30
28247;DHT22;66191;53.178;22.058;2023-03-23T16:09:56;14.90;90.90
28247;DHT22;66191;53.178;22.058;2023-03-23T16:12:27;14.80;91.10
28247;DHT22;66191;53.178;22.058;2023-03-23T16:15:00;14.70;91.60
28247;DHT22;66191;53.178;22.058;2023-03-23T16:17:31;14.70;92.00
28247;DHT22;66191;53.178;22.058;2023-03-23T16:20:04;14.60;92.10
28247;DHT22;66191;53.178;22.058;2023-03-23T16:22:39;14.60;92.60
28247;DHT22;66191;53.178;22.058;2023-03-23T16:25:10;14.50;92.80